world map with TAO marked

TAO - Airport

This information may not be accurate or current and is not valid for navigation or flight planning. No warranty of fitness for any purpose is made or implied.

flag of China

Donate via PayPal

Additional information is available on the NEW Great Circle Mapper

Location
City:  Qingdao, Shandong, China
Name:Liuting International Airport
ICAO / IATA:ZSQD / TAO

Details
Type:Airport (Aerodrome, Airfield)
Use:Public/Civil
Latitude:36°16'N (36.265)
Longitude:120°22'E (120.373)
Elevation:33 ft (10 m)
Runways:1
Longest:11155 × 148 ft (3400 × 45 m)

Time
Timezone:UTC+8 (DST+10)
Local Time:

Weather
METAR:ZSQD  041400Z 18005MPS 6000 NSC 05/01 Q1022 NOSIG
TAF:ZSQD  (expired)

Related Locations
Nearby:
Farthest:SAZA: 12389 mi / 19938 km
Azul [Azul Airport], B, AR

Find:

   beyond  
but within

Other Information
Maps:
Sources:

  

Airport Diagram

Airport diagram for TAO

Airport diagram PDF

 


Great Circle Mapper   Great Circle Mapper
Great Circle Mapper FAQ   Great Circle Mapper FAQ
  Karl's Home Page
KLSē   KLSē Home
   GC on Facebook
Airlines of the World   Airlines of the World
Donate via PayPal


Copyright © 2004-2019, Karl L. Swartz. All rights reserved.
All trademarks mentioned herein belong to their respective owners.

Please see credits for attribution and copyright information.

Karl Swartz <karl@kls2.com>
  Powered by FreeBSD
Valid HTML 4.01!
Labeled with ICRA
hCard Microformat
Geo Microformat